Strona główna
METAR-TAF:

METAR-TAF

Lotnisko :

Port lotniczy Luksor

Luksor, Egipt

Szerokość geograficzna: 25-40N, Długość geograficzna: 032-42E, wysokość: 93 m

Aktualna obserwacja pogody

Raport powstał 46 minut temu, godzina 00:00 UTC
Cisza
Temperatura 12°C
Wilgotność 71%
Ciśnienie 1017 hPa
Widzialność 10 km lub więcej
Brak chmur poniżej 1500 m i brak chmur cumulonimbus

METAR: HELX 160000Z 00000KT CAVOK 12/07 Q1017 NOSIG

czas: 02:46 (00:46 UTC)

Prognoza

Raport powstał 1 godzina i 46 minut temu, godzina 23:00 UTC
Prognoza ważna od 16 godzina 00 UTC do 17 godzina 06 UTC
Wiatr 8 kt od zachodnio-północny zachód
Widzialność 10 km lub więcej
Brak chmur poniżej 1500 m i brak chmur cumulonimbus
Przejściowo
od 16 godzina 03 UTC do 16 godzina 06 UTC
Wiatr 3 kt z kierunków zmiennych
Widzialność: 4000 m
zmętnienie

TAF: HELX 152300Z 1600/1706 30008KT CAVOK TEMPO 1603/1606 VRB03KT 4000 HZ NSC

Obserwacja i prognoza pogody dla ponad 4000 lotnisk (raport METAR i TAF).

Dostępne stacje oznaczono żółtymi i czerwonymi punktami na mapie.

Najedź kursorem aby zobaczyć nazwę stacji.

Kliknij aby zobaczyć obserwacje i prognozy pogody.

Aby zmienić mapę: kliknij na zielony przycisk z czarnym krzyżykiem, aby powiększyć; na zielony przycisk z myślnikiem, aby pomniejszyć; na zielone strzałki, aby przejść do map sąsiednich.


METAR-TAF: